Terminal Aerodrome Forecast
Issued by NWS

Home | Current Version | Previous Version | Text Only | Print | Product List | Glossary Off
Versions: 1 2 3 4 5 6 7 8 9 10 11 12 13 14 15

788
FTUS43 KBIS 251552 AAB
TAFDIK
TAF AMD
KDIK 251552Z 2516/2612 30010KT P6SM BKN040
     FM251900 29006KT P6SM SCT060
     FM260400 22004KT P6SM SCT080=

USA.gov is the U.S. government's official web portal to all federal, state and local government web resources and services.